This is the latest recevied weather packets stored in our database for station/object KB1FFS. If no packets are shown the sender has not sent any weather packets the latest 10 day(s).
| Time | Temp. | Humidity | Pressure | Rain* | Wind** | Luminosity | Snow |
|---|---|---|---|---|---|---|---|
| 1777497091 | 17.78° C | 71% | 1014.5 hPa | 0 mm | - | 122 W/m² | - |
| 1777496789 | 18.33° C | 70% | 1014.4 hPa | 0 mm | - | 101 W/m² | - |
| 1777496486 | 18.33° C | 70% | 1014.5 hPa | 0 mm | - | 118 W/m² | - |
| 1777496182 | 18.33° C | 70% | 1014.8 hPa | 0 mm | - | 122 W/m² | - |
| 1777495878 | 18.33° C | 71% | 1014.6 hPa | 0 mm | - | 119 W/m² | - |
| 1777495574 | 18.33° C | 70% | 1014.8 hPa | 0 mm | - | 173 W/m² | - |
| 1777495270 | 18.33° C | 70% | 1015 hPa | 0 mm | - | 135 W/m² | - |
| 1777494968 | 18.33° C | 69% | 1015 hPa | 0 mm | - | 132 W/m² | - |
| 1777494664 | 18.89° C | 69% | 1015 hPa | 0 mm | - | 192 W/m² | - |
| 1777494362 | 18.33° C | 69% | 1014.9 hPa | 0 mm | - | 307 W/m² | - |
| 1777494058 | 18.33° C | 69% | 1015.3 hPa | 0 mm | - | 169 W/m² | - |
| 1777493756 | 18.89° C | 69% | 1015.4 hPa | 0 mm | - | 140 W/m² | - |
| 1777493454 | 18.89° C | 68% | 1015 hPa | 0 mm | - | 281 W/m² | - |
| 1777493149 | 18.89° C | 68% | 1015.4 hPa | 0 mm | - | 257 W/m² | - |
| 1777492846 | 19.44° C | 67% | 1015.6 hPa | 0 mm | - | 268 W/m² | - |
| 1777492543 | 20° C | 67% | 1015.6 hPa | 0 mm | - | 272 W/m² | - |
| 1777492239 | 19.44° C | 68% | 1015.9 hPa | 0 mm | - | 282 W/m² | - |
| 1777491937 | 19.44° C | 69% | 1015.8 hPa | 0 mm | - | 549 W/m² | - |
| 1777491632 | 18.33° C | 70% | 1016 hPa | 0 mm | - | 397 W/m² | - |
| 1777491330 | 17.78° C | 72% | 1016.2 hPa | 0 mm | - | 296 W/m² | - |
| 1777491027 | 17.78° C | 73% | 1016.4 hPa | 0 mm | - | 252 W/m² | - |
| 1777490722 | 17.78° C | 72% | 1016.5 hPa | 0 mm | - | 186 W/m² | - |
| 1777490420 | 17.78° C | 73% | 1016.5 hPa | 0 mm | - | 148 W/m² | - |
| 1777490116 | 17.78° C | 72% | 1016.5 hPa | 0 mm | - | 137 W/m² | - |
| 1777489814 | 17.78° C | 72% | 1016.6 hPa | 0 mm | - | 79 W/m² | - |
* Rain latest hour (hover to see other rain measurements)
** Current wind speed in m/s (hover to see current wind gust speed)